createdAt,value
2018-05-27T00:02:09.914Z,93.70
2018-05-27T00:07:13.202Z,94.10
2018-05-27T00:12:16.415Z,94.90
2018-05-27T00:17:19.632Z,95.20
2018-05-27T00:22:23.270Z,95.00
2018-05-27T00:27:26.520Z,95.10
2018-05-27T00:32:29.749Z,94.50
2018-05-27T00:37:33.432Z,93.50
2018-05-27T00:42:36.678Z,93.50
2018-05-27T00:47:39.887Z,93.20
2018-05-27T00:52:43.123Z,93.00
2018-05-27T00:57:46.366Z,93.50
2018-05-27T01:02:49.994Z,93.40
2018-05-27T01:07:53.216Z,93.40
2018-05-27T01:12:56.451Z,93.10
2018-05-27T01:17:59.959Z,92.30
2018-05-27T01:23:04.100Z,91.80
2018-05-27T01:28:07.710Z,91.10
2018-05-27T01:33:11.329Z,90.50
2018-05-27T01:38:14.956Z,90.80
2018-05-27T01:43:18.163Z,90.80
2018-05-27T01:48:22.353Z,91.30
2018-05-27T01:53:25.965Z,92.40
2018-05-27T01:58:30.196Z,93.20
2018-05-27T02:03:33.419Z,93.20
2018-05-27T02:08:36.669Z,94.70
2018-05-27T02:13:39.991Z,97.00
2018-05-27T02:18:44.213Z,97.50
2018-05-27T02:23:47.822Z,97.90
2018-05-27T02:28:51.132Z,97.90
2018-05-27T02:33:54.867Z,97.80
2018-05-27T02:38:58.073Z,97.80
2018-05-27T02:44:01.289Z,97.80
2018-05-27T02:49:04.741Z,97.50
2018-05-27T02:54:07.973Z,97.00
2018-05-27T02:59:11.203Z,97.20
2018-05-27T03:04:14.438Z,97.40
2018-05-27T03:09:17.672Z,96.80
2018-05-27T03:14:20.901Z,96.00
2018-05-27T03:19:24.113Z,95.60
2018-05-27T03:24:27.458Z,94.70
2018-05-27T03:29:31.162Z,92.20
2018-05-27T03:34:34.391Z,92.20
2018-05-27T03:39:37.612Z,91.30
2018-05-27T03:44:40.827Z,90.60
2018-05-27T03:49:44.066Z,90.10
2018-05-27T03:54:47.372Z,90.00
2018-05-27T03:59:51.006Z,90.30
2018-05-27T04:05:06.012Z,90.30
2018-05-27T04:10:09.277Z,89.90
2018-05-27T04:15:12.529Z,89.00
2018-05-27T04:20:15.764Z,88.40
2018-05-27T04:25:19.410Z,88.50
2018-05-27T04:30:22.634Z,88.50
2018-05-27T04:35:25.887Z,88.70
2018-05-27T04:40:29.609Z,89.20
2018-05-27T04:45:32.913Z,89.20
2018-05-27T04:50:36.152Z,89.30
2018-05-27T04:55:39.375Z,89.50
2018-05-27T05:00:42.616Z,89.40
2018-05-27T05:05:45.829Z,89.00
2018-05-27T05:10:49.074Z,88.60
2018-05-27T05:15:52.306Z,88.80
2018-05-27T05:20:55.933Z,90.50
2018-05-27T05:25:59.181Z,90.50
2018-05-27T05:31:02.615Z,91.50
2018-05-27T05:36:06.325Z,90.90
2018-05-27T05:41:09.548Z,90.90
2018-05-27T05:46:12.759Z,90.70
2018-05-27T05:51:16.050Z,91.00
2018-05-27T05:56:19.330Z,90.60
2018-05-27T06:01:23.108Z,87.30
2018-05-27T06:06:26.341Z,87.30
2018-05-27T06:11:30.269Z,86.90
2018-05-27T06:16:33.903Z,86.10
2018-05-27T06:21:37.133Z,86.10
2018-05-27T06:26:40.374Z,85.90
2018-05-27T06:31:43.783Z,85.20
2018-05-27T06:36:47.390Z,83.60
2018-05-27T06:41:50.604Z,83.60
2018-05-27T06:46:54.289Z,83.40
2018-05-27T06:51:57.605Z,83.40
2018-05-27T06:57:01.229Z,83.30
2018-05-27T07:02:05.910Z,82.90
2018-05-27T07:07:09.218Z,82.90
2018-05-27T07:12:12.787Z,82.90
2018-05-27T07:17:17.307Z,82.30
2018-05-27T07:22:21.015Z,80.90
2018-05-27T07:27:24.652Z,82.20
2018-05-27T07:32:28.030Z,82.20
2018-05-27T07:37:31.665Z,82.60
2018-05-27T07:42:34.944Z,82.60
2018-05-27T07:47:38.610Z,81.30
2018-05-27T07:52:42.279Z,81.30
2018-05-27T07:57:45.538Z,81.90
2018-05-27T08:02:48.773Z,82.20
2018-05-27T08:07:52.437Z,84.30
2018-05-27T08:12:55.753Z,84.30
2018-05-27T08:17:59.075Z,85.60
2018-05-27T08:23:02.709Z,83.90
2018-05-27T08:28:06.008Z,83.90
2018-05-27T08:33:09.313Z,82.70
2018-05-27T08:38:12.605Z,81.40
2018-05-27T08:43:18.370Z,80.10
2018-05-27T08:48:22.067Z,80.80
2018-05-27T08:53:25.744Z,79.80
2018-05-27T08:58:28.982Z,79.80
2018-05-27T09:03:32.392Z,80.20
2018-05-27T09:08:36.097Z,80.50
2018-05-27T09:13:39.711Z,78.60
2018-05-27T09:18:42.982Z,78.60
2018-05-27T09:23:46.318Z,79.70
2018-05-27T09:28:49.564Z,79.50
2018-05-27T09:33:52.796Z,80.00
2018-05-27T09:38:56.441Z,79.30
2018-05-27T09:44:00.097Z,79.30
2018-05-27T09:49:03.306Z,78.50
2018-05-27T09:54:06.539Z,77.90
2018-05-27T09:59:10.184Z,77.40
2018-05-27T10:04:13.396Z,77.40
2018-05-27T10:09:16.786Z,77.60
2018-05-27T10:14:20.053Z,76.70
2018-05-27T10:19:23.914Z,76.20
2018-05-27T10:24:29.197Z,76.20
2018-05-27T10:29:32.747Z,77.70
2018-05-27T10:34:36.130Z,77.30
2018-05-27T10:39:39.358Z,76.90
2018-05-27T10:44:42.732Z,77.20
2018-05-27T10:49:46.379Z,76.10
2018-05-27T10:54:49.764Z,76.10
2018-05-27T10:59:53.610Z,75.30
2018-05-27T11:04:56.968Z,75.30
2018-05-27T11:10:00.703Z,73.60
2018-05-27T11:15:05.725Z,73.60
2018-05-27T11:20:09.367Z,73.60
2018-05-27T11:25:12.606Z,73.60
2018-05-27T11:30:15.835Z,72.50
2018-05-27T11:35:19.507Z,71.80
2018-05-27T11:40:23.371Z,71.80
2018-05-27T11:45:27.079Z,69.20
2018-05-27T11:50:30.785Z,69.90
2018-05-27T11:55:34.413Z,67.40
2018-05-27T12:00:37.799Z,67.40
2018-05-27T12:05:41.538Z,64.90
2018-05-27T12:10:44.802Z,64.90
2018-05-27T12:15:48.455Z,62.60
2018-05-27T12:20:51.825Z,62.60
2018-05-27T12:25:55.555Z,60.80
2018-05-27T12:30:58.800Z,60.70
2018-05-27T12:36:02.079Z,58.70
2018-05-27T12:41:12.964Z,59.70
2018-05-27T12:46:17.066Z,59.60
2018-05-27T12:51:20.318Z,60.20
2018-05-27T12:56:23.579Z,58.70
2018-05-27T13:01:26.812Z,58.60
2018-05-27T13:06:30.869Z,58.20
2018-05-27T13:11:34.265Z,58.80
2018-05-27T13:16:38.012Z,58.70
2018-05-27T13:21:41.193Z,58.70
2018-05-27T13:26:44.893Z,58.30
2018-05-27T13:31:48.514Z,59.30
2018-05-27T13:36:52.140Z,61.90
2018-05-27T13:41:55.371Z,61.90
2018-05-27T13:46:58.748Z,63.40
2018-05-27T13:52:01.974Z,63.80
2018-05-27T13:57:05.208Z,61.60
2018-05-27T14:02:08.447Z,61.00
2018-05-27T14:07:11.674Z,60.40
2018-05-27T14:12:14.921Z,61.00
2018-05-27T14:17:18.553Z,59.40
2018-05-27T14:22:21.802Z,59.40
2018-05-27T14:27:25.030Z,58.20
2018-05-27T14:32:28.661Z,56.60
2018-05-27T14:37:31.899Z,56.50
2018-05-27T14:42:35.126Z,58.60
2018-05-27T14:47:38.372Z,56.70
2018-05-27T14:52:41.627Z,57.40
2018-05-27T14:57:45.642Z,56.80
2018-05-27T15:02:48.898Z,56.40
2018-05-27T15:07:52.167Z,55.90
2018-05-27T15:12:55.805Z,54.70
2018-05-27T15:17:59.080Z,54.70
2018-05-27T15:23:02.353Z,53.90
2018-05-27T15:28:06.196Z,54.90
2018-05-27T15:33:09.834Z,55.10
2018-05-27T15:38:13.077Z,55.10
2018-05-27T15:43:16.315Z,54.40
2018-05-27T15:48:19.972Z,54.90
2018-05-27T15:53:23.255Z,54.90
2018-05-27T15:58:26.477Z,57.20
2018-05-27T16:03:29.729Z,58.30
2018-05-27T16:08:33.374Z,59.00
2018-05-27T16:13:36.638Z,59.00
2018-05-27T16:18:40.277Z,60.00
2018-05-27T16:23:44.095Z,60.00
2018-05-27T16:28:47.343Z,56.80
2018-05-27T16:33:50.683Z,56.90
2018-05-27T16:38:53.900Z,56.60
2018-05-27T16:43:57.139Z,56.70
2018-05-27T16:49:00.411Z,56.20
2018-05-27T16:54:03.694Z,56.60
2018-05-27T16:59:06.940Z,57.70
2018-05-27T17:04:10.177Z,57.70
2018-05-27T17:09:13.820Z,60.00
2018-05-27T17:14:17.431Z,59.90
2018-05-27T17:19:20.706Z,62.30
2018-05-27T17:24:24.451Z,65.60
2018-05-27T17:29:27.804Z,66.20
2018-05-27T17:34:31.513Z,68.30
2018-05-27T17:39:35.135Z,68.80
2018-05-27T17:44:38.755Z,69.60
2018-05-27T17:49:42.012Z,69.60
2018-05-27T17:54:45.342Z,70.50
2018-05-27T17:59:49.062Z,70.70
2018-05-27T18:04:52.787Z,70.90
2018-05-27T18:09:56.062Z,70.90
2018-05-27T18:14:59.302Z,71.00
2018-05-27T18:20:02.570Z,71.60
2018-05-27T18:25:06.187Z,71.80
2018-05-27T18:30:09.888Z,72.00
2018-05-27T18:35:13.537Z,73.00
2018-05-27T18:40:16.899Z,73.00
2018-05-27T18:45:20.537Z,73.90
2018-05-27T18:50:24.370Z,73.90
2018-05-27T18:55:27.729Z,74.50
2018-05-27T19:00:31.358Z,75.30
2018-05-27T19:05:34.570Z,75.30
2018-05-27T19:10:37.844Z,75.70
2018-05-27T19:15:41.878Z,75.80
2018-05-27T19:20:45.191Z,75.90
2018-05-27T19:25:48.436Z,76.50
2018-05-27T19:30:51.781Z,76.80
2018-05-27T19:35:55.795Z,77.40
2018-05-27T19:40:59.437Z,77.60
2018-05-27T19:46:02.651Z,77.60
2018-05-27T19:51:05.922Z,77.70
2018-05-27T19:56:09.145Z,77.70
2018-05-27T20:01:12.374Z,78.00
2018-05-27T20:06:15.600Z,78.30
2018-05-27T20:11:19.243Z,79.10
2018-05-27T20:16:22.491Z,79.10
2018-05-27T20:21:25.720Z,80.10
2018-05-27T20:26:29.344Z,81.90
2018-05-27T20:31:32.572Z,81.90
2018-05-27T20:36:35.807Z,83.50
2018-05-27T20:41:39.079Z,84.60
2018-05-27T20:46:42.328Z,84.80
2018-05-27T20:51:45.948Z,86.20
2018-05-27T20:56:49.578Z,86.60
2018-05-27T21:01:53.366Z,86.60
2018-05-27T21:06:57.015Z,86.40
2018-05-27T21:12:00.260Z,86.40
2018-05-27T21:17:03.553Z,86.60
2018-05-27T21:22:06.879Z,87.00
2018-05-27T21:27:10.523Z,87.50
2018-05-27T21:32:13.742Z,87.50
2018-05-27T21:37:17.104Z,87.50
2018-05-27T21:42:20.603Z,86.90
2018-05-27T21:47:23.896Z,86.10
2018-05-27T21:52:27.511Z,85.80
2018-05-27T21:57:31.140Z,86.20
2018-05-27T22:02:34.396Z,86.20
2018-05-27T22:07:37.627Z,86.40
2018-05-27T22:12:41.357Z,85.70
2018-05-27T22:17:44.578Z,85.70
2018-05-27T22:22:47.802Z,85.00
2018-05-27T22:27:51.060Z,84.60
2018-05-27T22:32:54.281Z,84.50
2018-05-27T22:37:57.506Z,84.70
2018-05-27T22:43:01.141Z,84.50
2018-05-27T22:48:05.058Z,84.70
2018-05-27T22:53:08.698Z,85.10
2018-05-27T22:58:11.919Z,85.10
2018-05-27T23:03:15.272Z,85.30
2018-05-27T23:08:19.469Z,85.20
2018-05-27T23:13:22.822Z,85.20
2018-05-27T23:18:26.071Z,85.20
2018-05-27T23:23:29.413Z,85.00
2018-05-27T23:28:32.682Z,84.80
2018-05-27T23:33:36.022Z,84.30
2018-05-27T23:38:39.244Z,84.10
2018-05-27T23:43:53.419Z,84.70
2018-05-27T23:48:56.660Z,84.30
2018-05-27T23:54:00.294Z,85.40
2018-05-27T23:59:06.043Z,85.40
